Idledale, Colorado
Current Conditions -  °F | °C
As of 6:45 PM on Wednesday 22 Oct 2014 (Local Time) from KBJC Reporting Station
Broken Clouds Broken Clouds  
Wind Chill: 63°   Ceiling: 10000
Heat Index: 63°   Visibility: 30mi
Dew Point: 34°   Wind: 12mph
Humidity: 34%   Direction: 320°NW
Pressure: 30.13"   Gusts: NA
Location:  39.67°N, 105.25°W
Report Text: KBJC 230045Z 32010KT 30SM SCT050 BKN100 17/01 A3013
Loading
Personal Weather Stations






























Interactive Weather Map
Tropical Storm Tracking
New forecast layout! Learn more

10-Day Weather Forecast

Advertisements
Track Severe Weather on mobile